createdAt,value
2023-05-09T00:05:02.588Z,100964.38
2023-05-09T00:10:04.652Z,100961.03
2023-05-09T00:15:08.342Z,100957.91
2023-05-09T00:20:12.275Z,100962.69
2023-05-09T00:25:14.251Z,100947.31
2023-05-09T00:30:16.018Z,100960.16
2023-05-09T00:35:17.696Z,100954.09
2023-05-09T00:40:19.318Z,100947.88
2023-05-09T00:45:20.980Z,100948.72
2023-05-09T00:50:22.740Z,100931.91
2023-05-09T00:55:24.400Z,100946.72
2023-05-09T01:00:26.073Z,100948.13
2023-05-09T01:05:44.488Z,100948.53
2023-05-09T01:10:54.740Z,100936.69
2023-05-09T01:16:08.683Z,100933.31
2023-05-09T01:21:24.149Z,100920.59
2023-05-09T01:26:48.038Z,100919.47
2023-05-09T01:31:50.061Z,100907.03
2023-05-09T01:36:52.120Z,100901.81
2023-05-09T01:41:55.493Z,100911.41
2023-05-09T01:46:58.888Z,100907.31
2023-05-09T01:52:04.714Z,100903.88
2023-05-09T01:57:08.524Z,100898.69
2023-05-09T02:02:10.346Z,100896.56
2023-05-09T02:07:12.818Z,100896.25
2023-05-09T02:12:14.469Z,100893.56
2023-05-09T02:17:17.323Z,100887.91
2023-05-09T02:22:19.027Z,100885.53
2023-05-09T02:27:21.296Z,100890.75
2023-05-09T02:32:25.795Z,100890.03
2023-05-09T02:37:28.202Z,100884.47
2023-05-09T02:42:30.185Z,100881.53
2023-05-09T02:47:31.943Z,100883.50
2023-05-09T02:52:33.621Z,100880.22
2023-05-09T02:57:35.435Z,100875.81
2023-05-09T03:02:37.794Z,100879.66
2023-05-09T03:07:41.463Z,100879.50
2023-05-09T03:12:43.830Z,100882.88
2023-05-09T03:17:47.140Z,100875.28
2023-05-09T03:22:48.783Z,100873.22
2023-05-09T03:27:50.690Z,100873.47
2023-05-09T03:32:52.478Z,100875.00
2023-05-09T03:37:54.209Z,100862.19
2023-05-09T03:42:55.828Z,100862.53
2023-05-09T03:47:57.585Z,100855.66
2023-05-09T03:52:59.260Z,100852.59
2023-05-09T03:58:01.224Z,100841.69
2023-05-09T04:03:04.111Z,100846.19
2023-05-09T04:08:11.690Z,100843.16
2023-05-09T04:13:13.428Z,100852.38
2023-05-09T04:18:15.631Z,100855.34
2023-05-09T04:23:17.480Z,100847.94
2023-05-09T04:28:19.520Z,100851.78
2023-05-09T04:33:22.153Z,100846.69
2023-05-09T04:38:25.771Z,100853.75
2023-05-09T04:43:28.093Z,100847.28
2023-05-09T04:48:29.881Z,100837.94
2023-05-09T04:53:32.047Z,100839.75
2023-05-09T04:58:38.326Z,100843.56
2023-05-09T05:03:43.660Z,100820.56
2023-05-09T05:08:45.750Z,100823.25
2023-05-09T05:13:47.506Z,100831.78
2023-05-09T05:18:49.191Z,100823.28
2023-05-09T05:23:52.125Z,100829.31
2023-05-09T05:28:56.457Z,100824.00
2023-05-09T05:33:59.438Z,100832.91
2023-05-09T05:39:01.622Z,100818.97
2023-05-09T05:44:03.550Z,100814.00
2023-05-09T05:49:05.675Z,100823.47
2023-05-09T05:54:08.569Z,100826.41
2023-05-09T05:59:13.229Z,100817.44
2023-05-09T06:04:15.390Z,100812.44
2023-05-09T06:09:17.111Z,100806.13
2023-05-09T06:14:19.301Z,100798.31
2023-05-09T06:19:21.487Z,100794.34
2023-05-09T06:24:34.638Z,100793.59
2023-05-09T06:29:37.911Z,100791.44
2023-05-09T06:34:39.467Z,100790.69
2023-05-09T06:39:41.359Z,100789.44
2023-05-09T06:44:43.791Z,100770.81
2023-05-09T06:49:45.575Z,100767.03
2023-05-09T06:54:47.424Z,100763.22
2023-05-09T06:59:48.990Z,100765.53
2023-05-09T07:04:50.659Z,100745.16
2023-05-09T07:09:55.204Z,100745.09
2023-05-09T07:15:02.491Z,100730.91
2023-05-09T07:20:04.911Z,100728.69
2023-05-09T07:25:09.754Z,100725.00
2023-05-09T07:30:11.879Z,100722.44
2023-05-09T07:35:13.750Z,100717.22
2023-05-09T07:40:15.874Z,100715.06
2023-05-09T07:45:18.845Z,100698.22
2023-05-09T07:50:23.133Z,100687.97
2023-05-09T07:55:24.692Z,100674.75
2023-05-09T08:00:26.344Z,100681.00
2023-05-09T08:05:27.901Z,100670.38
2023-05-09T08:10:31.031Z,100668.03
2023-05-09T08:15:32.642Z,100678.06
2023-05-09T08:20:34.566Z,100649.94
2023-05-09T08:25:36.207Z,100658.25
2023-05-09T08:30:37.921Z,100657.88
2023-05-09T08:35:39.483Z,100653.41
2023-05-09T08:40:41.380Z,100642.44
2023-05-09T08:46:05.826Z,100641.59
2023-05-09T08:51:07.686Z,100631.00
2023-05-09T08:56:09.560Z,100627.63
2023-05-09T09:01:13.416Z,100636.56
2023-05-09T09:06:16.531Z,100622.44
2023-05-09T09:11:18.782Z,100620.91
2023-05-09T09:16:22.081Z,100615.69
2023-05-09T09:21:23.773Z,100609.44
2023-05-09T09:26:29.150Z,100619.56
2023-05-09T09:31:33.207Z,100607.06
2023-05-09T09:36:36.716Z,100606.38
2023-05-09T09:41:39.364Z,100607.41
2023-05-09T09:46:51.097Z,100601.31
2023-05-09T09:51:54.698Z,100590.53
2023-05-09T09:56:56.947Z,100591.56
2023-05-09T10:01:58.634Z,100587.94
2023-05-09T10:07:03.713Z,100581.75
2023-05-09T10:12:07.070Z,100589.00
2023-05-09T10:17:09.075Z,100565.78
2023-05-09T10:22:12.349Z,100566.09
2023-05-09T10:27:15.643Z,100546.22
2023-05-09T10:32:53.468Z,100544.19
2023-05-09T10:37:57.146Z,100545.50
2023-05-09T10:42:58.818Z,100537.44
2023-05-09T10:48:01.699Z,100517.53
2023-05-09T10:53:11.057Z,100515.81
2023-05-09T10:58:19.515Z,100504.19
2023-05-09T11:03:21.353Z,100495.53
2023-05-09T11:08:30.571Z,100492.69
2023-05-09T11:13:33.592Z,100476.94
2023-05-09T11:18:35.379Z,100473.22
2023-05-09T11:23:38.777Z,100478.47
2023-05-09T11:28:40.405Z,100463.88
2023-05-09T11:33:43.301Z,100469.00
2023-05-09T11:38:48.349Z,100449.44
2023-05-09T11:43:49.997Z,100428.81
2023-05-09T11:48:51.594Z,100430.53
2023-05-09T11:53:54.161Z,100410.19
2023-05-09T11:58:56.059Z,100406.38
2023-05-09T12:03:58.995Z,100381.34
2023-05-09T12:09:00.802Z,100379.78
2023-05-09T12:14:02.548Z,100373.88
2023-05-09T12:19:05.145Z,100374.56
2023-05-09T12:24:07.050Z,100368.03
2023-05-09T12:29:08.846Z,100364.94
2023-05-09T12:34:10.591Z,100357.13
2023-05-09T12:39:12.311Z,100344.28
2023-05-09T12:44:28.001Z,100347.91
2023-05-09T12:49:30.827Z,100341.09
2023-05-09T12:54:32.746Z,100329.06
2023-05-09T12:59:34.414Z,100321.16
2023-05-09T13:04:36.033Z,100316.44
2023-05-09T13:09:54.589Z,100312.28
2023-05-09T13:14:56.346Z,100302.69
2023-05-09T13:19:57.986Z,100290.94
2023-05-09T13:24:59.574Z,100299.50
2023-05-09T13:30:01.314Z,100272.34
2023-05-09T13:35:03.233Z,100268.25
2023-05-09T13:40:05.153Z,100254.56
2023-05-09T13:45:07.310Z,100246.91
2023-05-09T13:50:09.203Z,100228.97
2023-05-09T13:55:10.761Z,100226.63
2023-05-09T14:00:14.445Z,100211.91
2023-05-09T14:05:17.533Z,100212.47
2023-05-09T14:10:19.359Z,100196.75
2023-05-09T14:15:21.117Z,100192.34
2023-05-09T14:20:22.783Z,100176.25
2023-05-09T14:25:24.473Z,100168.31
2023-05-09T14:30:26.652Z,100174.78
2023-05-09T14:35:28.264Z,100170.97
2023-05-09T14:40:31.865Z,100163.06
2023-05-09T14:45:33.815Z,100169.75
2023-05-09T14:50:35.576Z,100155.16
2023-05-09T14:55:37.277Z,100138.44
2023-05-09T15:00:38.849Z,100140.25
2023-05-09T15:05:41.575Z,100132.66
2023-05-09T15:10:43.199Z,100137.34
2023-05-09T15:15:44.835Z,100135.31
2023-05-09T15:20:46.566Z,100114.16
2023-05-09T15:25:48.360Z,100114.00
2023-05-09T15:30:49.984Z,100102.72
2023-05-09T15:35:56.089Z,100104.47
2023-05-09T15:40:57.763Z,100082.06
2023-05-09T15:45:59.341Z,100086.25
2023-05-09T15:51:02.467Z,100083.16
2023-05-09T15:56:04.327Z,100078.84
2023-05-09T16:01:07.831Z,100081.13
2023-05-09T16:06:09.411Z,100068.66
2023-05-09T16:11:10.980Z,100077.28
2023-05-09T16:16:12.667Z,100066.69
2023-05-09T16:21:14.315Z,100049.41
2023-05-09T16:26:15.866Z,100059.19
2023-05-09T16:31:17.486Z,100065.81
2023-05-09T16:36:19.594Z,100047.84
2023-05-09T16:41:21.332Z,100050.59
2023-05-09T16:46:23.692Z,100037.44
2023-05-09T16:51:25.332Z,100041.97
2023-05-09T16:56:27.250Z,100029.50
2023-05-09T17:01:29.108Z,100022.44
2023-05-09T17:06:30.773Z,100008.25
2023-05-09T17:11:32.510Z,100008.91
2023-05-09T17:16:36.563Z,99999.53
2023-05-09T17:21:41.520Z,99992.81
2023-05-09T17:26:43.516Z,99989.72
2023-05-09T17:31:45.150Z,99996.72
2023-05-09T17:36:46.804Z,99995.47
2023-05-09T17:41:48.386Z,99990.84
2023-05-09T17:46:50.385Z,99987.78
2023-05-09T17:51:52.386Z,99986.28
2023-05-09T17:56:55.946Z,99969.81
2023-05-09T18:01:57.887Z,99977.28
2023-05-09T18:06:59.641Z,99971.63
2023-05-09T18:12:01.246Z,99972.03
2023-05-09T18:17:02.947Z,99970.50
2023-05-09T18:22:04.725Z,99967.56
2023-05-09T18:27:06.456Z,99963.78
2023-05-09T18:32:08.089Z,99961.25
2023-05-09T18:37:10.398Z,99953.75
2023-05-09T18:42:13.365Z,99959.56
2023-05-09T18:47:16.947Z,99959.47
2023-05-09T18:52:20.403Z,99963.16
2023-05-09T18:57:21.975Z,99951.06
2023-05-09T19:02:23.914Z,99960.59
2023-05-09T19:07:25.577Z,99946.44
2023-05-09T19:12:28.714Z,99940.75
2023-05-09T19:17:30.380Z,99943.66
2023-05-09T19:22:32.174Z,99931.16
2023-05-09T19:27:33.795Z,99934.03
2023-05-09T19:32:35.407Z,99923.59
2023-05-09T19:37:37.364Z,99928.13
2023-05-09T19:42:39.417Z,99921.25
2023-05-09T19:47:41.589Z,99930.31
2023-05-09T19:52:43.300Z,99929.88
2023-05-09T19:57:44.887Z,99927.38
2023-05-09T20:02:46.973Z,99926.47
2023-05-09T20:07:49.517Z,99918.38
2023-05-09T20:12:52.921Z,99913.56
2023-05-09T20:17:54.653Z,99911.44
2023-05-09T20:22:56.919Z,99909.75
2023-05-09T20:27:58.770Z,99908.41
2023-05-09T20:33:01.104Z,99899.09
2023-05-09T20:38:04.593Z,99895.31
2023-05-09T20:43:06.264Z,99894.22
2023-05-09T20:48:08.013Z,99881.75
2023-05-09T20:53:09.740Z,99881.47
2023-05-09T20:58:14.731Z,99873.09
2023-05-09T21:03:16.840Z,99866.63
2023-05-09T21:08:19.252Z,99860.84
2023-05-09T21:13:21.305Z,99858.22
2023-05-09T21:18:23.124Z,99845.75
2023-05-09T21:23:26.976Z,99835.72
2023-05-09T21:28:29.024Z,99834.97
2023-05-09T21:33:30.969Z,99829.88
2023-05-09T21:38:32.527Z,99830.25
2023-05-09T21:43:34.251Z,99829.22
2023-05-09T21:48:36.084Z,99825.25
2023-05-09T21:53:37.682Z,99825.25
2023-05-09T21:58:39.426Z,99821.47
2023-05-09T22:03:41.195Z,99814.38
2023-05-09T22:08:43.011Z,99811.66
2023-05-09T22:13:44.608Z,99807.72
2023-05-09T22:18:46.242Z,99801.47
2023-05-09T22:23:47.776Z,99805.19
2023-05-09T22:28:49.635Z,99794.63
2023-05-09T22:33:51.374Z,99799.00
2023-05-09T22:38:52.936Z,99793.53
2023-05-09T22:43:54.566Z,99788.06
2023-05-09T22:48:56.237Z,99779.78
2023-05-09T22:53:57.780Z,99781.25
2023-05-09T22:58:59.337Z,99772.38
2023-05-09T23:04:02.227Z,99762.38
2023-05-09T23:09:04.173Z,99753.06
2023-05-09T23:14:06.389Z,99756.06
2023-05-09T23:19:07.995Z,99754.22
2023-05-09T23:24:09.572Z,99739.72
2023-05-09T23:29:11.173Z,99738.44
2023-05-09T23:34:12.877Z,99734.66
2023-05-09T23:39:15.566Z,99720.38
2023-05-09T23:44:17.247Z,99725.00
2023-05-09T23:49:18.888Z,99721.28
2023-05-09T23:54:21.550Z,99709.88
2023-05-09T23:59:23.182Z,99714.88
